X  Sluiten METAR luchtvaart weer gegevens      EHBK Maastricht Aachen Airport
Temperatuur
10°C Temperatuur
3°C Dauwpunt
62% Vochtigheid



Wind
16 KM/U
10 MPH
4 M/S
9 KTS



200°
ZZW
Huidig weer

Wat bewolking Wat bewolking
Luchtdruk 1000 (hPa) - 29.53 (inHg)
Zicht 6 (mijl) - 9.7 (km)
Vliegveld
Vliegveld code EHBK

Locatie : Maastricht Aachen Airport
Afstand: 26 (km)

Metar:
EHBK 251355Z AUTO 20009KT 150V230 9999 FEW026 BKN030 BKN034 10/03 Q1000 NOSIG

Tijd: 25-02-2024 14:55 CET